Tiempo atmosférico en la estación meteorológica de Ejea De Los Caballeros, Zaragoza (321 m.)



Fecha
DESCASC
Temp. máxima en grados centígrados (hora)
DESCASC
Temp. mínima en grados centígrados (hora)
DESCASC
Temp. media en grados centígrados
DESCASC
Racha de viento máxima en m/sg (hora)
DESCASC
Velocidad máxima media en intervalos de 10 minutos(hora)
DESCASC
Precipitaciones diarias en mm
DESCASC
Precipitaciones de 00:00 a 06:00 en mm
DESCASC
Precipitaciones de 06:00 a 12:00 en mm
DESCASC
Precipitaciones de 12:00 a 18:00 en mm
DESCASC
Precipitaciones de 18:00 a 24:00 en mm
DESCASC
22-01-2020 9.1 (15:30) 2.8 (08:20) 6 4.44 (03:50) 1.94 (04:00) 5.4 5.4 0 0 0
21-01-2020 4.6 (16:20) 1.9 (00:00) 3.2 7.5 (14:30) 2.5 (14:20) 6 0.2 2.2 3.4 0.2
20-01-2020 5.7 (14:30) 0.3 (07:10) 3 9.17 (03:50) 3.61 (12:50) 0 0 0 0 0
19-01-2020 10.6 (14:40) 2.9 (00:00) 6.8 10 (13:20) 2.78 (12:50) 2.4 1.6 0.8 0 0
18-01-2020 11.9 (14:40) 0.6 (00:00) 6.2 7.78 (13:40) 3.06 (21:30) 6 0 0 0 6
17-01-2020 13.1 (12:40) 3.5 (00:00) 8.3 8.06 (14:00) 4.17 (14:00) 0.4 0 0 0.4 0
16-01-2020 15 (15:00) 1.7 (00:00) 8.4 7.78 (12:10) 2.5 (12:10) 0 0 0 0 0
15-01-2020 12.1 (15:00) 1.2 (00:00) 6.7 6.11 (09:40) 1.94 (09:40) 0 0 0 0 0
14-01-2020 6.4 (16:30) -3.7 (-00:0) 1.4 4.44 (23:20) 2.22 (14:10) 0 0 0 0 0
13-01-2020 2.6 (16:30) -4.4 (-00:0) -0.9 2.5 (12:20) 1.11 (10:30) 0 0 0 0 0
12-01-2020 10.4 (16:00) -4.2 (08:50) 3.1 3.61 (20:10) 1.39 (18:00) 0 0 0 0 0
11-01-2020 12 (15:30) -0.6 (-00:0) 5.7 6.39 (02:50) 2.5 (02:50) 0 0 0 0 0
10-01-2020 11.5 (15:40) 3.8 (00:00) 7.6 9.44 (15:20) 3.89 (15:20) 0.2 0.2 0 0 0
09-01-2020 5.7 (14:50) 2 (00:00) 3.8 4.72 (19:50) 2.22 (17:10) 0 0 0 0 0
08-01-2020 6 (15:50) 1.6 (00:00) 3.8 4.44 (12:30) 1.67 (12:30) 0 0 0 0 0
07-01-2020 3.7 (16:30) 0.8 (00:00) 2.3 3.61 (20:50) 1.39 (17:40) 0 0 0 0 0
06-01-2020 3.5 (15:40) 1.1 (00:00) 2.3 6.39 (04:20) 2.22 (00:40) 0 0 0 0 0
05-01-2020 11.6 (15:50) -1.2 (-00:0) 5.2 5.83 (23:10) 2.22 (23:10) 0 0 0 0 0
04-01-2020 13.6 (14:00) 3.3 (00:00) 8.5 8.89 (14:10) 3.61 (13:20) 0 0 0 0 0
03-01-2020 7.8 (19:30) 0.3 (00:00) 4.1 6.39 (19:50) 2.5 (18:50) 0 0 0 0 0
02-01-2020 1.7 (15:20) -0.1 (00:00) 0.8 3.06 (12:50) 1.39 (19:50) 0 0 0 0 0
01-01-2020 1.7 (15:00) 0.7 (00:00) 1.2 3.33 (04:50) 1.39 (10:00) 0 0 0 0 0
31-12-2019 3.2 (00:00) 1.6 (00:00) 2.4 2.78 (20:50) 1.11 (20:50) 0 0 0 0 0
30-12-2019 -- (--) -- (--) -- -- (--) -- (--) -- 0 0 0 --
29-12-2019 2.4 (16:00) -0.1 (00:00) 1.2 2.22 (17:10) 1.11 (23:40) 0 0 0 0 0
28-12-2019 7.9 (15:40) -2.7 (-00:0) 2.6 4.17 (20:50) 1.39 (20:50) 0 0 0 0 0
27-12-2019 11.7 (16:10) -1.9 (-00:0) 4.9 3.61 (14:50) 1.67 (15:30) 0 0 0 0 0
26-12-2019 15 (13:10) 2.2 (00:00) 8.6 8.61 (14:30) 2.78 (11:20) 0 0 0 0 0

Gráficas

Temp. máximas Temp. mínimas Temp. medias Precipitaciones Rachas de viento máximas Velocidades máximas media en intervalos de 10 minutos

Datos horarios

Fecha y hora oficial Temperatura (ºC) Velocidad del viento (km/h) Dirección del viento Racha (km/h) Dirección de racha Precipitación (mm) Presión (hPa) Tendencia (hPa) Humedad (%)
2020-01-24 23:00:00 7.2 3 Este 10 Nordeste 0 -- -- 93
2020-01-24 22:00:00 6.7 3 Nordeste 9 Este 0 -- -- 94
2020-01-24 21:00:00 6.6 2 Este 7 Nordeste 0 -- -- 92
2020-01-24 20:00:00 6.6 0 Calma 6 Este 0 -- -- 88
2020-01-24 19:00:00 8.5 2 Este 4 Este 0 -- -- 85
2020-01-24 18:00:00 10.7 2 Este 10 Sudeste 0 -- -- 78
2020-01-24 17:00:00 11.6 3 Este 11 Este 0 -- -- 75
2020-01-24 16:00:00 11.6 4 Este 10 Sudeste 0 -- -- 74
2020-01-24 15:00:00 11.9 4 Nordeste 13 Este 0 -- -- 72
2020-01-24 14:00:00 12.1 4 Este 14 Sudeste 0 -- -- 74
2020-01-24 13:00:00 10.6 4 Sudeste 12 Norte 0 -- -- 79
2020-01-24 12:00:00 8.2 7 Nordeste 13 Norte 0 -- -- 88
2020-01-24 11:00:00 6.4 2 Sudeste 9 Sudoeste 0 -- -- 93
2020-01-24 10:00:00 5.2 3 Sudoeste 6 Sudoeste 0 -- -- 95
2020-01-24 09:00:00 4.9 0 Calma 5 Nordeste 0 -- -- 92
2020-01-24 08:00:00 5.8 2 Nordeste 8 Sudeste 0 -- -- 91
2020-01-24 07:00:00 5.9 0 Calma 8 Nordeste 0 -- -- 91
2020-01-24 06:00:00 5.7 4 Nordeste 8 Este 0 -- -- 92
2020-01-24 05:00:00 5.5 4 Nordeste 9 Nordeste 0 -- -- 92
2020-01-24 04:00:00 5.6 3 Este 6 Nordeste 0 -- -- 92
2020-01-24 03:00:00 5.9 3 Sudoeste 14 Nordeste 0 -- -- 90
2020-01-24 02:00:00 6.2 3 Este 9 Nordeste 0 -- -- 89
2020-01-24 01:00:00 6.2 2 Sudeste 10 Nordeste 0 -- -- 90
2020-01-24 00:00:00 6.2 2 Este 10 Nordeste 0.2 -- -- 90
2020-01-23 23:00:00 6 4 Nordeste 14 Nordeste 0 -- -- 90
2020-01-23 22:00:00 5.6 5 Este 14 Este 0 -- -- 92
2020-01-23 21:00:00 5.3 4 Este 14 Nordeste 0 -- -- 93
2020-01-23 20:00:00 5.8 5 Este 18 Norte 0 -- -- 93
2020-01-23 19:00:00 6.6 5 Este 21 Este 0 -- -- 90
2020-01-23 18:00:00 7.4 5 Este 17 Nordeste 0 -- -- 88
2020-01-23 17:00:00 7.8 6 Este 21 Nordeste 0 -- -- 86
2020-01-23 16:00:00 8.1 6 Este 24 Este 0 -- -- 88
2020-01-23 15:00:00 8 5 Este 14 Nordeste 0 -- -- 90
2020-01-23 14:00:00 7.6 5 Este 14 Nordeste 0 -- -- 94
2020-01-23 13:00:00 6.6 2 Este 5 Este 0 -- -- 96
2020-01-23 12:00:00 6.3 0 Calma 5 Norte 0.2 -- -- 97
2020-01-23 11:00:00 5.6 0 Calma 2 Sudoeste 0.2 -- -- 98
2020-01-23 10:00:00 5.2 0 Calma 3 Sudoeste 0 -- -- 97
2020-01-23 09:00:00 4.8 0 Calma 6 Sudoeste 0 -- -- 97
2020-01-23 08:00:00 4.7 0 Calma 3 Sudoeste 0.2 -- -- 97
2020-01-23 07:00:00 4.5 0 Calma 4 Norte 0.4 -- -- 97
2020-01-23 06:00:00 4.4 0 Calma 2 Sudoeste 0 -- -- 96
2020-01-23 05:00:00 4.6 0 Calma 6 Nordeste 0 -- -- 96
2020-01-23 04:00:00 4.5 0 Calma 6 Sudeste 0 -- -- 96
2020-01-23 03:00:00 4.6 2 Nordeste 5 Sudeste 0 -- -- 96
2020-01-23 02:00:00 5 3 Este 9 Nordeste 0 -- -- 96
2020-01-23 01:00:00 5.5 0 Calma 5 Este 0 -- -- 96
2020-01-23 00:00:00 5.8 0 Calma 4 Nordeste 0 -- -- 96
2020-01-22 23:00:00 5.9 0 Calma 3 Nordeste 0 -- -- 95
2020-01-22 22:00:00 6.1 0 Calma 2 Nordeste 0 -- -- 94
2020-01-22 21:00:00 6.5 0 Calma 3 Nordeste 0 -- -- 92
2020-01-22 20:00:00 6.9 0 Calma 4 Nordeste 0 -- -- 91
2020-01-22 19:00:00 7.6 0 Calma 2 Sudoeste 0 -- -- 89
2020-01-22 18:00:00 8.1 2 Sur 9 Sudoeste 0 -- -- 87
2020-01-22 17:00:00 8.5 3 Oeste 11 Sudoeste 0 -- -- 83
2020-01-22 16:00:00 8.8 5 Oeste 12 Sudoeste 0 -- -- 81
2020-01-22 15:00:00 8.7 6 Sudoeste 13 Sudoeste 0 -- -- 85
2020-01-22 14:00:00 8.5 5 Oeste 11 Oeste 0 -- -- 83
2020-01-22 13:00:00 7.6 6 Oeste 11 Oeste 0 -- -- 84
2020-01-22 12:00:00 6.1 4 Sudoeste 8 Oeste 0 -- -- 88
2020-01-22 11:00:00 4.6 2 Oeste 9 Oeste 0 -- -- 95
2020-01-22 10:00:00 3.7 2 Sudoeste 5 Sudoeste 0 -- -- 96
2020-01-22 09:00:00 3.2 3 Oeste 8 Oeste 0 -- -- 96
2020-01-22 08:00:00 2.9 3 Oeste 8 Sudoeste 0 -- -- 95
2020-01-22 07:00:00 3.1 3 Oeste 8 Oeste 0 -- -- 94
2020-01-22 06:00:00 3.5 2 Oeste 9 Oeste 0 -- -- 92
2020-01-22 05:00:00 3.6 3 Oeste 14 Oeste 0 -- -- 93
2020-01-22 04:00:00 3.7 7 Oeste 16 Oeste 0 -- -- 94
2020-01-22 03:00:00 3.5 4 Oeste 14 Norte 0.8 -- -- 95
2020-01-22 02:00:00 3.4 4 Norte 11 Noroeste 3 -- -- 94
2020-01-22 01:00:00 3.4 4 Norte 8 Noroeste 1.6 -- -- 92
2020-01-22 00:00:00 3.5 3 Noroeste 11 Oeste 0.2 -- -- 90
2020-01-21 23:00:00 3.4 3 Sur 14 Oeste 0 -- -- 89
2020-01-21 22:00:00 3.5 4 Oeste 12 Oeste 0 -- -- 88
2020-01-21 21:00:00 3.8 5 Oeste 15 Sudoeste 0 -- -- 88
2020-01-21 20:00:00 3.9 3 Oeste 13 Oeste 0 -- -- 88
2020-01-21 19:00:00 3.9 6 Oeste 17 Oeste 0 -- -- 89
2020-01-21 18:00:00 4.2 5 Oeste 14 Oeste 0 -- -- 88
2020-01-21 17:00:00 4.5 6 Oeste 19 Oeste 0 -- -- 89
2020-01-21 16:00:00 4.4 8 Oeste 18 Oeste 0 -- -- 90
2020-01-21 15:00:00 3.9 6 Oeste 27 Oeste 0.2 -- -- 92
2020-01-21 14:00:00 3.3 6 Oeste 21 Oeste 2 -- -- 92
2020-01-21 13:00:00 3.4 7 Oeste 18 Oeste 1.2 -- -- 90
2020-01-21 12:00:00 3.2 6 Oeste 19 Oeste 1 -- -- 90
2020-01-21 11:00:00 3 5 Oeste 17 Oeste 0.8 -- -- 89
2020-01-21 10:00:00 2.8 4 Oeste 22 Oeste 0.2 -- -- 86
2020-01-21 09:00:00 2.7 7 Oeste 17 Noroeste 0 -- -- 84
2020-01-21 08:00:00 2.6 4 Oeste 15 Oeste 0.2 -- -- 84
2020-01-21 07:00:00 2.6 3 Norte 11 Norte 0 -- -- 83
2020-01-21 06:00:00 2.8 5 Oeste 19 Oeste 0.2 -- -- 78
2020-01-21 05:00:00 2.7 3 Sudoeste 16 Oeste 0 -- -- 76
2020-01-21 04:00:00 2.5 7 Oeste 18 Oeste 0 -- -- 76
2020-01-21 03:00:00 2.2 6 Oeste 18 Oeste 0 -- -- 76
2020-01-21 02:00:00 2.2 4 Norte 18 Noroeste 0 -- -- 77
2020-01-21 01:00:00 2.2 6 Oeste 16 Oeste 0 -- -- 76
2020-01-21 00:00:00 1.9 6 Oeste 18 Oeste 0 -- -- 76
2020-01-20 23:00:00 1.9 9 Oeste 22 Oeste 0 -- -- 75
2020-01-20 22:00:00 2.1 9 Oeste 21 Oeste 0 -- -- 75
2020-01-20 21:00:00 2.7 8 Oeste 24 Noroeste 0 -- -- 74
2020-01-20 20:00:00 3 8 Oeste 26 Oeste 0 -- -- 71
2020-01-20 19:00:00 3.5 9 Oeste 24 Oeste 0 -- -- 68
2020-01-20 18:00:00 4.1 7 Oeste 19 Oeste 0 -- -- 65
2020-01-20 17:00:00 4.6 8 Oeste 25 Noroeste 0 -- -- 62
2020-01-20 16:00:00 5 13 Oeste 28 Noroeste 0 -- -- 61
2020-01-20 15:00:00 5.5 10 Oeste 26 Oeste 0 -- -- 60
2020-01-20 14:00:00 4.9 9 Oeste 25 Oeste 0 -- -- 61
2020-01-20 13:00:00 4.1 12 Oeste 26 Oeste 0 -- -- 64
2020-01-20 12:00:00 3 8 Oeste 20 Oeste 0 -- -- 67
2020-01-20 11:00:00 2.3 9 Oeste 19 Oeste 0 -- -- 68
2020-01-20 10:00:00 1.5 8 Oeste 19 Oeste 0 -- -- 71
2020-01-20 09:00:00 0.8 8 Oeste 21 Oeste 0 -- -- 73
2020-01-20 08:00:00 0.3 9 Oeste 22 Oeste 0 -- -- 75
2020-01-20 07:00:00 0.4 7 Oeste 24 Oeste 0 -- -- 73
2020-01-20 06:00:00 0.7 6 Oeste 19 Oeste 0 -- -- 71
2020-01-20 05:00:00 1.9 9 Oeste 21 Noroeste 0 -- -- 63
2020-01-20 04:00:00 2.3 10 Oeste 33 Oeste 0 -- -- 62
2020-01-20 03:00:00 2.3 10 Oeste 24 Oeste 0 -- -- 62
2020-01-20 02:00:00 2.4 10 Oeste 23 Sudoeste 0 -- -- 62
2020-01-20 01:00:00 2.6 9 Oeste 23 Oeste 0 -- -- 62
2020-01-20 00:00:00 2.9 6 Oeste 19 Oeste 0 -- -- 62
2020-01-19 23:00:00 3.4 8 Oeste 20 Oeste 0 -- -- 61
2020-01-19 22:00:00 3.3 5 Oeste 13 Oeste 0 -- -- 60
2020-01-19 21:00:00 3.8 6 Oeste 16 Oeste 0 -- -- 54
2020-01-19 20:00:00 4.3 5 Oeste 19 Oeste 0 -- -- 56
2020-01-19 19:00:00 5.1 6 Norte 26 Norte 0 -- -- 55
2020-01-19 18:00:00 6.3 7 Oeste 31 Noroeste 0 -- -- 51
2020-01-19 17:00:00 8.2 8 Oeste 26 Norte 0 -- -- 51
2020-01-19 16:00:00 9.4 10 Oeste 33 Noroeste 0 -- -- 52
2020-01-19 15:00:00 9.8 9 Noroeste 32 Norte 0 -- -- 53
2020-01-19 14:00:00 9.9 9 Oeste 36 Norte 0 -- -- 57
2020-01-19 13:00:00 9.7 9 Norte 24 Norte 0 -- -- 55
2020-01-19 12:00:00 8.1 4 Sudoeste 15 Oeste 0 -- -- 69
2020-01-19 11:00:00 6.4 4 Oeste 8 Noroeste 0 -- -- 88
2020-01-19 10:00:00 5.7 2 Sudoeste 7 Oeste 0 -- -- 95
2020-01-19 09:00:00 5.3 0 Calma 3 Sudoeste 0 -- -- 95
2020-01-19 08:00:00 5.4 0 Calma 6 Noroeste 0.4 -- -- 95
2020-01-19 07:00:00 5.4 0 Calma 8 Sudoeste 0.4 -- -- 94
2020-01-19 06:00:00 5.3 3 Oeste 13 Noroeste 0.2 -- -- 93
2020-01-19 05:00:00 5.4 5 Oeste 14 Oeste 0.2 -- -- 92
2020-01-19 04:00:00 5.4 4 Oeste 17 Oeste 0 -- -- 92
2020-01-19 03:00:00 5.5 4 Oeste 16 Noroeste 0.4 -- -- 93
2020-01-19 02:00:00 5.7 4 Norte 15 Oeste 0.2 -- -- 93
2020-01-19 01:00:00 5.9 3 Oeste 17 Noroeste 0.6 -- -- 91
2020-01-19 00:00:00 6.4 4 Norte 13 Nordeste 1.6 -- -- 94
2020-01-18 23:00:00 6.2 4 Este 18 Este 2 -- -- 92
2020-01-18 22:00:00 6.5 7 Este 26 Este 1.2 -- -- 90
2020-01-18 21:00:00 6.4 7 Este 22 Este 0 -- -- 89
2020-01-18 20:00:00 6.6 6 Este 21 Este 0.8 -- -- 90
2020-01-18 19:00:00 7.3 6 Nordeste 23 Este 0.4 -- -- 86
2020-01-18 18:00:00 8.7 8 Este 22 Este 0 -- -- 72
2020-01-18 17:00:00 9.2 8 Este 22 Nordeste 0 -- -- 71
2020-01-18 16:00:00 9.9 8 Este 24 Este 0 -- -- 70
2020-01-18 15:00:00 11.4 8 Este 24 Este 0 -- -- 61
2020-01-18 14:00:00 11.1 9 Este 28 Este 0 -- -- 61
2020-01-18 13:00:00 10.1 9 Este 27 Este 0 -- -- 66
2020-01-18 12:00:00 8.6 8 Este 21 Este 0 -- -- 70
2020-01-18 11:00:00 6.3 5 Este 18 Este 0 -- -- 80
2020-01-18 10:00:00 4.2 3 Nordeste 9 Nordeste 0 -- -- 88
2020-01-18 09:00:00 2.4 0 Calma 6 Nordeste 0 -- -- 93
2020-01-18 08:00:00 1.7 2 Este 7 Este 0 -- -- 95
2020-01-18 07:00:00 1.4 0 Calma 5 Nordeste 0 -- -- 94
2020-01-18 06:00:00 1.4 0 Calma 3 Sur 0 -- -- 95
2020-01-18 05:00:00 1.1 0 Calma 4 Norte 0 -- -- 94
2020-01-18 04:00:00 1 2 Este 3 Nordeste 0 -- -- 94
2020-01-18 03:00:00 0.8 0 Calma 4 Sudoeste 0 -- -- 93
2020-01-18 02:00:00 1 0 Calma 5 Nordeste 0 -- -- 89
2020-01-18 01:00:00 2.6 0 Calma 7 Oeste 0 -- -- 89
2020-01-18 00:00:00 3.5 2 Sudoeste 8 Oeste 0 -- -- 85
2020-01-17 23:00:00 4.6 4 Oeste 10 Oeste 0 -- -- 82
2020-01-17 22:00:00 5.3 3 Sudoeste 9 Oeste 0 -- -- 80
2020-01-17 21:00:00 5.2 3 Oeste 8 Sudoeste 0 -- -- 81
2020-01-17 20:00:00 6.7 4 Sudoeste 10 Noroeste 0 -- -- 74
2020-01-17 19:00:00 8.6 6 Norte 19 Noroeste 0 -- -- 67
2020-01-17 18:00:00 9.6 8 Norte 18 Norte 0 -- -- 63
2020-01-17 17:00:00 11 10 Norte 22 Noroeste 0 -- -- 60
2020-01-17 16:00:00 11.9 12 Norte 24 Norte 0.2 -- -- 59
2020-01-17 15:00:00 12.4 10 Norte 28 Noroeste 0 -- -- 59
2020-01-17 14:00:00 11.2 15 Norte 29 Norte 0 -- -- 66
2020-01-17 13:00:00 12.6 6 Oeste 19 Oeste 0.2 -- -- 69
2020-01-17 12:00:00 11 0 Calma 8 Sudoeste 0 -- -- 72
2020-01-17 11:00:00 8.4 0 Calma 6 Norte 0 -- -- 86
2020-01-17 10:00:00 5.8 0 Calma 7 Sudoeste 0 -- -- 90
2020-01-17 09:00:00 5.8 3 Nordeste 10 Nordeste 0 -- -- 91
2020-01-17 08:00:00 5.7 4 Este 11 Nordeste 0 -- -- 91
2020-01-17 07:00:00 6.4 4 Este 14 Este 0 -- -- 88
2020-01-17 06:00:00 7 5 Este 15 Nordeste 0 -- -- 88
2020-01-17 05:00:00 7 5 Este 17 Este 0 -- -- 88
2020-01-17 04:00:00 7.2 5 Este 17 Este 0 -- -- 88
2020-01-17 03:00:00 7.7 4 Nordeste 16 Sudeste 0 -- -- 87
2020-01-17 02:00:00 8.4 5 Nordeste 15 Nordeste 0 -- -- 82
2020-01-17 01:00:00 8.4 5 Este 21 Nordeste 0 -- -- 81
2020-01-17 00:00:00 8.1 5 Este 19 Este 0 -- -- 83
2020-01-16 23:00:00 7.6 4 Sudeste 19 Nordeste 0 -- -- 84
2020-01-16 22:00:00 7.9 6 Este 21 Este 0 -- -- 85
2020-01-16 21:00:00 8.2 6 Este 24 Nordeste 0 -- -- 84
2020-01-16 20:00:00 8.6 5 Nordeste 18 Este 0 -- -- 82
2020-01-16 19:00:00 10 6 Nordeste 17 Este 0 -- -- 76
2020-01-16 18:00:00 11.7 6 Este 18 Nordeste 0 -- -- 71
2020-01-16 17:00:00 14.1 6 Este 24 Este 0 -- -- 63
2020-01-16 16:00:00 14.4 6 Este 21 Este 0 -- -- 63
2020-01-16 15:00:00 15 7 Este 21 Este 0 -- -- 59
2020-01-16 14:00:00 14 8 Este 28 Nordeste 0 -- -- 62
2020-01-16 13:00:00 12.2 8 Este 28 Nordeste 0 -- -- 67
2020-01-16 12:00:00 9.8 7 Este 23 Nordeste 0 -- -- 74
2020-01-16 11:00:00 6.9 6 Nordeste 20 Nordeste 0 -- -- 82
2020-01-16 10:00:00 4.7 7 Este 20 Este 0 -- -- 89
2020-01-16 09:00:00 3.2 6 Nordeste 21 Nordeste 0 -- -- 90
2020-01-16 08:00:00 3.6 6 Este 19 Este 0 -- -- 90
2020-01-16 07:00:00 3.3 5 Este 20 Este 0 -- -- 92
2020-01-16 06:00:00 2.5 5 Nordeste 13 Este 0 -- -- 92
2020-01-16 05:00:00 3.1 5 Este 18 Este 0 -- -- 92
2020-01-16 04:00:00 3.1 4 Este 11 Sudeste 0 -- -- 93
2020-01-16 03:00:00 2.9 5 Este 14 Este 0 -- -- 92
2020-01-16 02:00:00 3.2 5 Este 14 Nordeste 0 -- -- 95
2020-01-16 01:00:00 1.7 4 Nordeste 8 Este 0 -- -- 93
2020-01-16 00:00:00 2.5 4 Nordeste 8 Este 0 -- -- 92
2020-01-15 23:00:00 2.8 3 Este 10 Nordeste 0 -- -- 91
2020-01-15 22:00:00 2.8 3 Este 8 Nordeste 0 -- -- 90
2020-01-15 21:00:00 4.1 2 Este 5 Nordeste 0 -- -- 86
2020-01-15 20:00:00 5.7 2 Sudoeste 8 Nordeste 0 -- -- 82
2020-01-15 19:00:00 7.1 4 Nordeste 8 Nordeste 0 -- -- 78
2020-01-15 18:00:00 9.1 4 Este 12 Nordeste 0 -- -- 71
2020-01-15 17:00:00 10.6 4 Este 12 Sudeste 0 -- -- 66
2020-01-15 16:00:00 12 3 Este 12 Sudeste 0 -- -- 62
2020-01-15 15:00:00 12.1 5 Este 13 Nordeste 0 -- -- 60
2020-01-15 14:00:00 9 6 Sudeste 15 Sudeste 0 -- -- 69
2020-01-15 13:00:00 8.6 4 Este 15 Sudeste 0 -- -- 70
2020-01-15 12:00:00 7.6 6 Este 15 Nordeste 0 -- -- 71
2020-01-15 11:00:00 6.1 4 Este 19 Nordeste 0 -- -- 76
2020-01-15 10:00:00 3.8 6 Nordeste 22 Este 0 -- -- 82
2020-01-15 09:00:00 1.6 4 Este 13 Este 0 -- -- 85
2020-01-15 08:00:00 1.9 5 Este 17 Este 0 -- -- 85
2020-01-15 07:00:00 1.7 4 Nordeste 9 Nordeste 0 -- -- 87
2020-01-15 06:00:00 1.4 3 Este 15 Nordeste 0 -- -- 87
2020-01-15 05:00:00 1.9 4 Nordeste 15 Este 0 -- -- 85
2020-01-15 04:00:00 1.8 6 Este 19 Este 0 -- -- 85
2020-01-15 03:00:00 1.7 5 Este 15 Nordeste 0 -- -- 87
2020-01-15 02:00:00 1.3 4 Nordeste 15 Este 0 -- -- 89
2020-01-15 01:00:00 1.6 4 Este 14 Nordeste 0 -- -- 89
2020-01-15 00:00:00 1.5 6 Este 16 Este 0 -- -- 91
2020-01-14 23:00:00 1.4 5 Este 15 Este 0 -- -- 91
2020-01-14 22:00:00 1.3 6 Nordeste 12 Nordeste 0 -- -- 93
2020-01-14 21:00:00 0.8 5 Nordeste 9 Este 0 -- -- 95
2020-01-14 20:00:00 0.6 3 Nordeste 6 Nordeste 0 -- -- 93
2020-01-14 19:00:00 1.5 0 Calma 8 Sudoeste 0 -- -- 88
2020-01-14 18:00:00 3.4 5 Sudoeste 10 Sudoeste 0 -- -- 85
2020-01-14 17:00:00 5.9 5 Sudoeste 9 Sudoeste 0 -- -- 80
2020-01-14 16:00:00 5.9 4 Sudoeste 11 Sudoeste 0 -- -- 83
2020-01-14 15:00:00 4.3 5 Sudoeste 13 Sudoeste 0 -- -- 90
2020-01-14 14:00:00 2.2 5 Sudoeste 13 Sudoeste 0 -- -- 96
2020-01-14 13:00:00 0.7 5 Sudoeste 13 Sudoeste 0 -- -- 97
2020-01-14 12:00:00 -0.2 3 Sudoeste 9 Sudoeste 0 -- -- 97
2020-01-14 11:00:00 -1.7 0 Calma 5 Este 0 -- -- 99
2020-01-14 10:00:00 -3 3 Nordeste 8 Nordeste 0 -- -- 98
2020-01-14 09:00:00 -2.7 0 Calma 6 Sudeste 0 -- -- 98
2020-01-14 08:00:00 -3 2 Sur 6 Sudoeste 0 -- -- 98
2020-01-14 07:00:00 -3.6 3 Sudoeste 6 Norte 0 -- -- 98
2020-01-14 06:00:00 -3.6 2 Nordeste 9 Noroeste 0 -- -- 98
2020-01-14 05:00:00 -3.2 3 Nordeste 6 Este 0 -- -- 97
2020-01-14 04:00:00 -2.3 3 Nordeste 5 Nordeste 0 -- -- 97
2020-01-14 03:00:00 -1.5 2 Este 8 Nordeste 0 -- -- 98
2020-01-14 02:00:00 -1.5 0 Calma 7 Sudoeste 0 -- -- 98
2020-01-14 01:00:00 -1.5 0 Calma 5 Norte 0 -- -- 97
2020-01-14 00:00:00 -1.2 2 Sudeste 6 Sur 0 -- -- 97
2020-01-13 23:00:00 -1.1 2 Sur 9 Sudoeste 0 -- -- 97
2020-01-13 22:00:00 -1.4 3 Oeste 6 Noroeste 0 -- -- 97
2020-01-13 21:00:00 -1.2 3 Norte 7 Nordeste 0 -- -- 96
2020-01-13 20:00:00 -1 3 Sudoeste 8 Sur 0 -- -- 95
2020-01-13 19:00:00 -0.3 2 Sudoeste 8 Sudoeste 0 -- -- 93
2020-01-13 18:00:00 1.4 3 Sudoeste 5 Sudoeste 0 -- -- 90
2020-01-13 17:00:00 2.5 3 Sur 6 Sur 0 -- -- 90
2020-01-13 16:00:00 2.4 3 Sudoeste 8 Sudoeste 0 -- -- 92
2020-01-13 15:00:00 1.5 2 Sudoeste 7 Sudoeste 0 -- -- 94
2020-01-13 14:00:00 0.6 3 Oeste 8 Sudoeste 0 -- -- 96
2020-01-13 13:00:00 -0.9 3 Oeste 9 Sudoeste 0 -- -- 96
2020-01-13 12:00:00 -1.9 3 Sudoeste 5 Sudoeste 0 -- -- 96
2020-01-13 11:00:00 -3 4 Sudoeste 9 Sudoeste 0 -- -- 96
2020-01-13 10:00:00 -3.9 2 Sur 5 Sudoeste 0 -- -- 96
2020-01-13 09:00:00 -4.2 3 Oeste 5 Sudoeste 0 -- -- 95
2020-01-13 08:00:00 -4 0 Calma -- -- 0 -- -- 94
2020-01-13 07:00:00 -3.6 0 Calma 3 Nordeste 0 -- -- 94
2020-01-13 06:00:00 -3.2 0 Calma 4 Este 0 -- -- 94
2020-01-13 05:00:00 -2.8 2 Nordeste 7 Nordeste 0 -- -- 94
2020-01-13 04:00:00 -2.5 2 Nordeste 6 Nordeste 0 -- -- 95
2020-01-13 03:00:00 -2.1 2 Nordeste 6 Nordeste 0 -- -- 95
2020-01-13 02:00:00 -1.8 3 Nordeste 6 Nordeste 0 -- -- 95
2020-01-13 01:00:00 -1.3 3 Nordeste 9 Este 0 -- -- 95
2020-01-13 00:00:00 -1 3 Nordeste 10 Nordeste 0 -- -- 95
2020-01-12 23:00:00 -0.6 4 Nordeste 10 Este 0 -- -- 95
2020-01-12 22:00:00 -0.2 3 Nordeste 12 Este 0 -- -- 95
2020-01-12 21:00:00 0.5 5 Nordeste 13 Nordeste 0 -- -- 95
2020-01-12 20:00:00 1.3 5 Nordeste 11 Nordeste 0 -- -- 93
2020-01-12 19:00:00 2.8 4 Este 13 Este 0 -- -- 91
2020-01-12 18:00:00 4.2 5 Nordeste 11 Este 0 -- -- 83
2020-01-12 17:00:00 8.9 4 Este 10 Nordeste 0 -- -- 69
2020-01-12 16:00:00 10.4 3 Este 5 Nordeste 0 -- -- 54
2020-01-12 15:00:00 9.1 2 Norte 6 Nordeste 0 -- -- 57
2020-01-12 14:00:00 7.9 3 Sur 6 Sudeste 0 -- -- 61
2020-01-12 13:00:00 5.7 2 Este 8 Este 0 -- -- 76
2020-01-12 12:00:00 3.5 3 Nordeste 9 Este 0 -- -- 86
2020-01-12 11:00:00 0.8 3 Nordeste 6 Este 0 -- -- 97
2020-01-12 10:00:00 -3.2 0 Calma 5 Nordeste 0 -- -- 96
2020-01-12 09:00:00 -4.1 2 Nordeste 5 Nordeste 0 -- -- 95
2020-01-12 08:00:00 -3.9 0 Calma 3 Este 0 -- -- 95
2020-01-12 07:00:00 -3.6 0 Calma 3 Sudoeste 0 -- -- 95
2020-01-12 06:00:00 -3.2 0 Calma 5 Este 0 -- -- 94
2020-01-12 05:00:00 -2.8 0 Calma 4 Nordeste 0 -- -- 94
2020-01-12 04:00:00 -2.5 0 Calma 2 Este 0 -- -- 94
2020-01-12 03:00:00 -2 0 Calma 5 Nordeste 0 -- -- 94
2020-01-12 02:00:00 -1.4 0 Calma 9 Nordeste 0 -- -- 94
2020-01-12 01:00:00 -1.3 0 Calma 4 Este 0 -- -- 93
2020-01-12 00:00:00 -0.6 0 Calma 6 Este 0 -- -- 93
2020-01-11 23:00:00 -0.2 2 Nordeste 4 Nordeste 0 -- -- 92
2020-01-11 22:00:00 0.7 0 Calma 2 Nordeste 0 -- -- 89
2020-01-11 21:00:00 2 0 Calma 0 Calma 0 -- -- 87
2020-01-11 20:00:00 3.9 0 Calma 0 Calma 0 -- -- 82
2020-01-11 19:00:00 6.2 0 Calma 4 Sudoeste 0 -- -- 75
2020-01-11 18:00:00 9.1 0 Calma 7 Oeste 0 -- -- 65
2020-01-11 17:00:00 11.5 5 Oeste 14 Sudoeste 0 -- -- 54
2020-01-11 16:00:00 12 6 Oeste 16 Noroeste 0 -- -- 54
2020-01-11 15:00:00 11.9 7 Oeste 16 Oeste 0 -- -- 55
2020-01-11 14:00:00 11.1 7 Oeste 18 Oeste 0 -- -- 56
2020-01-11 13:00:00 10.1 7 Oeste 22 Noroeste 0 -- -- 60
2020-01-11 12:00:00 8.6 8 Oeste 19 Oeste 0 -- -- 65
2020-01-11 11:00:00 4.4 4 Norte 9 Oeste 0 -- -- 87
2020-01-11 10:00:00 -0.4 0 Calma 4 Nordeste 0 -- -- 92
2020-01-11 09:00:00 -0.2 0 Calma 4 Nordeste 0 -- -- 87
2020-01-11 08:00:00 2.2 2 Norte 9 Noroeste 0 -- -- 87
2020-01-11 07:00:00 3 3 Oeste 17 Oeste 0 -- -- 84
2020-01-11 06:00:00 3.4 6 Oeste 19 Noroeste 0 -- -- 84
2020-01-11 05:00:00 3.7 5 Oeste 19 Oeste 0 -- -- 83
2020-01-11 04:00:00 4.1 7 Oeste 19 Noroeste 0 -- -- 82
2020-01-11 03:00:00 4.5 8 Oeste 23 Noroeste 0 -- -- 81
2020-01-11 02:00:00 4.9 7 Oeste 21 Oeste 0 -- -- 81
2020-01-11 01:00:00 5.1 6 Oeste 17 Noroeste 0 -- -- 80
2020-01-11 00:00:00 5.4 5 Oeste 18 Sudoeste 0 -- -- 81
2020-01-10 23:00:00 5.9 7 Oeste 25 Noroeste 0 -- -- 83
2020-01-10 22:00:00 6.2 10 Oeste 21 Oeste 0 -- -- 83
2020-01-10 21:00:00 6.6 5 Oeste 16 Oeste 0 -- -- 79
2020-01-10 20:00:00 7 3 Sudoeste 21 Oeste 0 -- -- 78
2020-01-10 19:00:00 7.9 8 Oeste 18 Oeste 0 -- -- 74
2020-01-10 18:00:00 9 5 Oeste 22 Oeste 0 -- -- 70
2020-01-10 17:00:00 10.8 8 Oeste 30 Oeste 0 -- -- 66
2020-01-10 16:00:00 11.4 10 Oeste 34 Noroeste 0 -- -- 67
2020-01-10 15:00:00 11.4 13 Oeste 31 Noroeste 0 -- -- 66
2020-01-10 14:00:00 11.1 7 Oeste 30 Oeste 0 -- -- 69
2020-01-10 13:00:00 10.7 12 Oeste 30 Oeste 0 -- -- 71
2020-01-10 12:00:00 9.4 11 Oeste 23 Oeste 0 -- -- 76
2020-01-10 11:00:00 8 8 Oeste 22 Oeste 0 -- -- 80
2020-01-10 10:00:00 5.8 7 Oeste 17 Oeste 0 -- -- 88
2020-01-10 09:00:00 4.4 4 Oeste 15 Noroeste 0 -- -- 89
2020-01-10 08:00:00 4 2 Sur 14 Noroeste 0 -- -- 92
2020-01-10 07:00:00 3.8 2 Sur 11 Noroeste 0 -- -- 93
2020-01-10 06:00:00 4.9 6 Oeste 12 Oeste 0 -- -- 97
2020-01-10 05:00:00 4.6 4 Sudoeste 13 Oeste 0 -- -- 98
2020-01-10 04:00:00 4.6 6 Oeste 15 Noroeste 0 -- -- 98
2020-01-10 03:00:00 4.3 3 Oeste 14 Oeste 0 -- -- 99
2020-01-10 02:00:00 4.1 5 Oeste 17 Sudoeste 0 -- -- 99
2020-01-10 01:00:00 3.8 6 Sudoeste 12 Sudoeste 0.2 -- -- 99
2020-01-10 00:00:00 3.8 6 Sudoeste 12 Sudoeste 0 -- -- 98
2020-01-09 23:00:00 3.6 4 Oeste 10 Oeste 0 -- -- 98
2020-01-09 22:00:00 3.5 2 Sudoeste 10 Sudoeste 0 -- -- 98
2020-01-09 21:00:00 3.6 2 Oeste 9 Oeste 0 -- -- 98
2020-01-09 20:00:00 3.6 5 Oeste 17 Oeste 0 -- -- 98
2020-01-09 19:00:00 3.5 4 Sudoeste 11 Sudoeste 0 -- -- 98
2020-01-09 18:00:00 3.7 4 Sudoeste 15 Sudoeste 0 -- -- 97
2020-01-09 17:00:00 4.1 8 Sudoeste 15 Sudoeste 0 -- -- 97
2020-01-09 16:00:00 4.4 4 Sudoeste 13 Sudoeste 0 -- -- 98
2020-01-09 15:00:00 5.3 4 Sur 14 Este 0 -- -- 98
2020-01-09 14:00:00 4.8 3 Oeste 8 Sudeste 0 -- -- 99
2020-01-09 13:00:00 3.8 3 Sudeste 8 Este 0 -- -- 99
2020-01-09 12:00:00 2.9 0 Calma 5 Sudoeste 0 -- -- 99
2020-01-09 11:00:00 2.4 2 Oeste 9 Nordeste 0 -- -- 99
2020-01-09 10:00:00 2.2 3 Este 8 Nordeste 0 -- -- 99
2020-01-09 09:00:00 2.1 2 Norte 5 Norte 0 -- -- 99
2020-01-09 08:00:00 2.1 0 Calma 3 Este 0 -- -- 98
2020-01-09 07:00:00 2 2 Nordeste 6 Este 0 -- -- 98
2020-01-09 06:00:00 2.3 3 Este 6 Este 0 -- -- 98
2020-01-09 05:00:00 2.5 0 Calma 2 Este 0 -- -- 98
2020-01-09 04:00:00 2.5 0 Calma 5 Sudoeste 0 -- -- 98
2020-01-09 03:00:00 2.7 3 Oeste 5 Sudoeste 0 -- -- 98
2020-01-09 02:00:00 3 3 Sur 7 Sudoeste 0 -- -- 98
2020-01-09 01:00:00 3.1 0 Calma 5 Sudoeste 0 -- -- 98
2020-01-09 00:00:00 3.2 0 Calma 5 Este 0 -- -- 97
2020-01-08 23:00:00 3.5 0 Calma 7 Sudeste 0 -- -- 97
2020-01-08 22:00:00 3.7 0 Calma 5 Sudeste 0 -- -- 97
2020-01-08 21:00:00 4 2 Sudeste 8 Sur 0 -- -- 96
2020-01-08 20:00:00 4.3 4 Sudeste 13 Este 0 -- -- 95
2020-01-08 19:00:00 4.4 4 Este 13 Este 0 -- -- 96
2020-01-08 18:00:00 3.8 0 Calma 10 Sudoeste 0 -- -- 94
2020-01-08 17:00:00 4.7 3 Sudoeste 9 Sur 0 -- -- 92
2020-01-08 16:00:00 5.9 4 Sudoeste 9 Sudoeste 0 -- -- 88
2020-01-08 15:00:00 4.8 4 Sur 8 Sudoeste 0 -- -- 95
2020-01-08 14:00:00 4.1 5 Sudoeste 9 Sudeste 0 -- -- 97
2020-01-08 13:00:00 3.9 3 Este 16 Este 0 -- -- 99
2020-01-08 12:00:00 2.9 5 Este 13 Nordeste 0 -- -- 99
2020-01-08 11:00:00 2.1 3 Este 11 Este 0 -- -- 99
2020-01-08 10:00:00 1.8 4 Este 9 Sudeste 0 -- -- 99
2020-01-08 09:00:00 1.8 2 Nordeste 9 Nordeste 0 -- -- 98
2020-01-08 08:00:00 2.3 4 Este 10 Sudeste 0 -- -- 99
2020-01-08 07:00:00 2 0 Calma 3 Sur 0 -- -- 98
2020-01-08 06:00:00 1.9 2 Sudoeste 4 Sudoeste 0 -- -- 98
2020-01-08 05:00:00 1.8 0 Calma 2 Sudoeste 0 -- -- 98
2020-01-08 04:00:00 1.6 0 Calma 4 Sudoeste 0 -- -- 98
2020-01-08 03:00:00 1.7 2 Sur 6 Sur 0 -- -- 98
2020-01-08 02:00:00 1.9 3 Sur 9 Sur 0 -- -- 98
2020-01-08 01:00:00 2.2 3 Sur 8 Sudeste 0 -- -- 98
2020-01-08 00:00:00 2.7 3 Este 10 Este 0 -- -- 98
2020-01-07 23:00:00 2.5 4 Este 12 Nordeste 0 -- -- 98
2020-01-07 22:00:00 2.4 4 Este 12 Este 0 -- -- 97
2020-01-07 21:00:00 2.3 4 Este 13 Este 0 -- -- 97
2020-01-07 20:00:00 2.7 4 Este 12 Nordeste 0 -- -- 96
2020-01-07 19:00:00 3.2 2 Este 8 Nordeste 0 -- -- 96
2020-01-07 18:00:00 3.2 3 Este 9 Nordeste 0 -- -- 95
2020-01-07 17:00:00 3.6 3 Nordeste 7 Nordeste 0 -- -- 94
2020-01-07 16:00:00 3.5 0 Calma 4 Sudoeste 0 -- -- 97
2020-01-07 15:00:00 3 0 Calma 6 Oeste 0 -- -- 98
2020-01-07 14:00:00 2.6 2 Norte 5 Sudoeste 0 -- -- 98
2020-01-07 13:00:00 2.2 2 Sudoeste 5 Este 0 -- -- 98
2020-01-07 12:00:00 1.8 3 Nordeste 9 Este 0 -- -- 98
2020-01-07 11:00:00 1.4 2 Este 7 Nordeste 0 -- -- 99
2020-01-07 10:00:00 1.2 2 Este 5 Nordeste 0 -- -- 98
2020-01-07 09:00:00 1 0 Calma 7 Norte 0 -- -- 98
2020-01-07 08:00:00 1 2 Sudeste 5 Nordeste 0 -- -- 98
2020-01-07 07:00:00 1 0 Calma 8 Nordeste 0 -- -- 98
2020-01-07 06:00:00 1.1 3 Este 9 Nordeste 0 -- -- 98
2020-01-07 05:00:00 0.9 0 Calma 9 Este 0 -- -- 98
2020-01-07 04:00:00 1 0 Calma 5 Este 0 -- -- 98
2020-01-07 03:00:00 1.1 3 Este 7 Este 0 -- -- 98
2020-01-07 02:00:00 1 4 Nordeste 6 Nordeste 0 -- -- 98
2020-01-07 01:00:00 1.3 2 Norte 11 Oeste 0 -- -- 98
2020-01-07 00:00:00 1.2 4 Oeste 9 Oeste 0 -- -- 98
2020-01-06 23:00:00 1.4 4 Sudoeste 11 Sudoeste 0 -- -- 97
2020-01-06 22:00:00 1.7 6 Oeste 14 Oeste 0 -- -- 97
2020-01-06 21:00:00 2.1 5 Oeste 12 Oeste 0 -- -- 97
2020-01-06 20:00:00 2.5 4 Oeste 9 Oeste 0 -- -- 96
2020-01-06 19:00:00 2.8 3 Oeste 10 Norte 0 -- -- 96
2020-01-06 18:00:00 3 3 Oeste 7 Sudoeste 0 -- -- 95
2020-01-06 17:00:00 3.3 3 Oeste 8 Oeste 0 -- -- 94
2020-01-06 16:00:00 3.5 3 Oeste 8 Oeste 0 -- -- 95
2020-01-06 15:00:00 3.2 0 Calma 6 Oeste 0 -- -- 96
2020-01-06 14:00:00 2.8 3 Oeste 8 Oeste 0 -- -- 97
2020-01-06 13:00:00 2.2 2 Oeste 6 Nordeste 0 -- -- 98
2020-01-06 12:00:00 1.8 3 Norte 6 Norte 0 -- -- 98
2020-01-06 11:00:00 1.5 0 Calma 6 Norte 0 -- -- 98
2020-01-06 10:00:00 1.2 4 Norte 9 Sudoeste 0 -- -- 98